Time;durP1;ratioP1;P1;durP2;ratioP2;P2;SDS_P1;SDS_P2;PMS_P1;PMS_P2;Temp;Humidity;BMP_temperature;BMP_pressure;BME280_temperature;BME280_humidity;BME280_pressure;Samples;Min_cycle;Max_cycle;Signal;HPM_P1;HPM_P2
2023/08/31 00:00:12;;;;;;;5.13;1.80;;;20.80;96.70;;;;;;5024387;28;20136;-74
2023/08/31 00:02:40;;;;;;;4.00;1.33;;;20.90;96.70;;;;;;5024210;28;20077;-75
2023/08/31 00:05:09;;;;;;;4.38;1.60;;;20.90;96.70;;;;;;5028762;28;20095;-73
2023/08/31 00:07:37;;;;;;;8.73;2.10;;;20.80;96.70;;;;;;5025552;28;20042;-74
2023/08/31 00:10:11;;;;;;;7.25;1.88;;;20.70;96.70;;;;;;5025990;28;20041;-73
2023/08/31 00:12:40;;;;;;;5.80;2.05;;;20.70;96.70;;;;;;5019286;28;20053;-74
2023/08/31 00:15:10;;;;;;;6.63;1.83;;;20.70;96.70;;;;;;5024221;28;20095;-74
2023/08/31 00:17:39;;;;;;;8.13;2.03;;;20.60;96.70;;;;;;5024062;28;20045;-74
2023/08/31 00:20:11;;;;;;;5.63;1.80;;;20.60;96.70;;;;;;5029427;28;20048;-73
2023/08/31 00:22:40;;;;;;;5.32;1.85;;;20.60;96.70;;;;;;5025751;28;20120;-74
2023/08/31 00:25:08;;;;;;;5.13;1.75;;;20.60;96.70;;;;;;5005156;28;20100;-73
2023/08/31 00:27:40;;;;;;;6.25;2.38;;;20.60;96.70;;;;;;5030364;28;20542;-73
2023/08/31 00:30:14;;;;;;;9.23;1.92;;;20.40;96.70;;;;;;5020231;28;20057;-74
2023/08/31 00:32:42;;;;;;;6.82;1.83;;;20.50;96.70;;;;;;5024587;28;20098;-74
2023/08/31 00:35:10;;;;;;;5.75;1.80;;;20.50;96.70;;;;;;5023647;28;20038;-74
2023/08/31 00:37:39;;;;;;;4.90;1.75;;;20.50;96.70;;;;;;5007160;28;20140;-74
2023/08/31 00:40:11;;;;;;;7.68;2.05;;;20.40;96.70;;;;;;5032434;28;20037;-73
2023/08/31 00:42:39;;;;;;;9.02;2.65;;;20.50;96.70;;;;;;5029434;28;20046;-74
2023/08/31 00:45:10;;;;;;;3.47;1.73;;;20.50;96.70;;;;;;5024798;28;20044;-73
2023/08/31 00:47:40;;;;;;;5.32;2.08;;;20.50;96.70;;;;;;5023761;28;20462;-74
2023/08/31 00:50:10;;;;;;;5.90;1.83;;;20.50;96.70;;;;;;5022958;28;20049;-74
2023/08/31 00:52:38;;;;;;;5.97;2.08;;;20.40;96.70;;;;;;5023259;28;20053;-74
2023/08/31 00:55:09;;;;;;;6.90;2.00;;;20.30;96.70;;;;;;5016732;28;20558;-74
2023/08/31 00:57:37;;;;;;;6.32;1.92;;;20.30;96.70;;;;;;5025073;28;20051;-73
2023/08/31 01:00:07;;;;;;;7.30;1.55;;;20.30;96.70;;;;;;5006875;28;20977;-74
2023/08/31 01:02:44;;;;;;;5.78;1.63;;;20.30;96.70;;;;;;5022712;28;20128;-74
2023/08/31 01:05:29;;;;;;;3.92;1.40;;;20.30;96.70;;;;;;5015190;28;20453;-73
2023/08/31 01:08:07;;;;;;;3.63;1.77;;;20.30;96.70;;;;;;5023389;28;20049;-77
2023/08/31 01:10:44;;;;;;;7.85;1.75;;;20.30;96.70;;;;;;5022734;28;20073;-79
2023/08/31 01:13:13;;;;;;;4.60;1.75;;;20.20;96.70;;;;;;5023110;28;20053;-79
2023/08/31 01:15:48;;;;;;;6.18;2.10;;;20.20;96.70;;;;;;5020913;28;20045;-79
2023/08/31 01:18:22;;;;;;;4.15;1.60;;;20.20;96.70;;;;;;5010329;28;20057;-80
2023/08/31 01:20:58;;;;;;;4.60;1.73;;;20.30;96.70;;;;;;5032012;28;20048;-79
2023/08/31 01:23:34;;;;;;;6.75;1.80;;;20.20;96.70;;;;;;5022479;28;20667;-78
2023/08/31 01:26:04;;;;;;;4.40;2.15;;;20.20;96.70;;;;;;5025553;28;20050;-79
2023/08/31 01:28:33;;;;;;;5.93;2.13;;;20.20;96.70;;;;;;5026026;28;20053;-79
2023/08/31 01:31:05;;;;;;;7.13;2.13;;;20.20;96.70;;;;;;5041564;28;20056;-79
2023/08/31 01:34:10;;;;;;;2.40;1.48;;;20.20;96.70;;;;;;5044148;28;20128;-79
2023/08/31 01:37:06;;;;;;;5.55;1.80;;;20.10;96.70;;;;;;5050621;28;20576;-78
2023/08/31 01:39:43;;;;;;;4.45;2.00;;;20.20;96.70;;;;;;5047613;28;20048;-79
2023/08/31 01:42:16;;;;;;;6.82;2.03;;;20.20;96.70;;;;;;5055740;28;20055;-78
2023/08/31 01:44:48;;;;;;;6.70;1.75;;;20.20;96.70;;;;;;5049149;28;20051;-78
2023/08/31 01:47:19;;;;;;;5.68;1.60;;;20.20;96.70;;;;;;5046116;28;20147;-78
2023/08/31 01:49:47;;;;;;;5.95;1.80;;;20.20;96.70;;;;;;5029147;28;20489;-77
2023/08/31 01:52:16;;;;;;;7.30;1.98;;;20.20;96.70;;;;;;5046045;28;20394;-78
2023/08/31 01:54:45;;;;;;;5.20;1.40;;;20.20;96.70;;;;;;5056040;28;20098;-78
2023/08/31 01:57:15;;;;;;;5.53;1.63;;;20.10;96.70;;;;;;5042935;28;20041;-78
2023/08/31 02:00:04;;;;;;;3.78;1.80;;;20.10;96.70;;;;;;5046666;28;20063;-78
2023/08/31 02:02:41;;;;;;;6.47;2.03;;;20.10;96.70;;;;;;5058799;28;20586;-78
2023/08/31 02:05:10;;;;;;;4.70;1.60;;;20.00;96.70;;;;;;5040715;28;20045;-78
2023/08/31 02:07:40;;;;;;;7.15;1.92;;;20.10;96.70;;;;;;5019447;28;20071;-77
2023/08/31 02:10:09;;;;;;;7.70;2.17;;;20.00;96.70;;;;;;5025904;28;20072;-78
2023/08/31 02:12:39;;;;;;;6.65;1.77;;;20.00;96.70;;;;;;5045761;28;20051;-79
2023/08/31 02:15:08;;;;;;;3.25;1.55;;;20.00;96.70;;;;;;5045282;28;20048;-78
2023/08/31 02:17:37;;;;;;;5.90;2.05;;;20.00;96.70;;;;;;5050106;28;20036;-78
2023/08/31 02:20:08;;;;;;;6.60;2.40;;;20.00;96.70;;;;;;5050471;28;20052;-78
2023/08/31 02:22:36;;;;;;;4.63;1.88;;;20.00;96.70;;;;;;5044894;28;20110;-77
2023/08/31 02:25:06;;;;;;;5.32;1.67;;;20.00;96.70;;;;;;5036622;28;20149;-77
2023/08/31 02:27:35;;;;;;;9.18;1.85;;;19.90;96.70;;;;;;5050548;28;20082;-78
2023/08/31 02:30:17;;;;;;;9.95;1.63;;;19.90;96.70;;;;;;5062855;28;20143;-77
2023/08/31 02:32:47;;;;;;;5.05;1.52;;;19.90;96.70;;;;;;5028400;28;20072;-78
2023/08/31 02:35:15;;;;;;;4.60;1.67;;;19.80;96.70;;;;;;5051296;28;20097;-78
2023/08/31 02:37:43;;;;;;;7.30;1.70;;;19.80;96.70;;;;;;5054991;28;20041;-78
2023/08/31 02:40:12;;;;;;;4.13;1.80;;;19.80;96.70;;;;;;5045346;28;20131;-78
2023/08/31 02:42:40;;;;;;;5.25;1.90;;;19.80;96.70;;;;;;5038349;28;20159;-79
2023/08/31 02:45:10;;;;;;;2.60;1.30;;;19.70;96.70;;;;;;5054662;28;20169;-78
2023/08/31 02:47:40;;;;;;;8.18;1.60;;;19.70;96.70;;;;;;5052364;28;20037;-80
2023/08/31 02:50:09;;;;;;;5.53;1.40;;;19.60;96.70;;;;;;5045625;28;20083;-79
2023/08/31 02:52:37;;;;;;;5.43;1.80;;;19.60;96.70;;;;;;5055878;28;20044;-80
2023/08/31 02:55:06;;;;;;;6.05;1.75;;;19.60;96.70;;;;;;5045280;28;20136;-78
2023/08/31 02:57:35;;;;;;;5.35;1.90;;;19.60;96.70;;;;;;5081104;28;20687;-79
2023/08/31 03:00:08;;;;;;;6.72;1.88;;;19.60;96.70;;;;;;5047416;28;20076;-79
2023/08/31 03:02:37;;;;;;;5.90;2.08;;;19.60;96.70;;;;;;5048932;28;20597;-78
2023/08/31 03:05:07;;;;;;;2.88;1.63;;;19.60;96.70;;;;;;5048839;28;20528;-79
2023/08/31 03:07:35;;;;;;;3.25;1.70;;;19.60;96.70;;;;;;5047221;28;20140;-79
2023/08/31 03:10:04;;;;;;;5.13;1.38;;;19.60;96.70;;;;;;5064243;28;20068;-79
2023/08/31 03:12:33;;;;;;;5.28;1.40;;;19.60;96.70;;;;;;5031830;28;20098;-78
2023/08/31 03:15:01;;;;;;;4.72;1.60;;;19.50;96.70;;;;;;5048116;28;20050;-79
2023/08/31 03:17:30;;;;;;;5.90;1.60;;;19.50;96.70;;;;;;5028425;28;20049;-78
2023/08/31 03:19:58;;;;;;;5.57;1.85;;;19.50;96.70;;;;;;5043504;28;20048;-78
2023/08/31 03:22:27;;;;;;;4.85;1.27;;;19.40;96.70;;;;;;5066398;28;20047;-79
2023/08/31 03:24:56;;;;;;;6.57;1.80;;;19.40;96.70;;;;;;5067674;28;20055;-79
2023/08/31 03:27:24;;;;;;;7.18;1.75;;;19.40;96.70;;;;;;5068212;28;20044;-79
2023/08/31 03:29:53;;;;;;;3.88;1.20;;;19.50;96.70;;;;;;5055114;28;20375;-79
2023/08/31 03:32:21;;;;;;;4.60;1.35;;;19.50;96.70;;;;;;5082013;28;20577;-79
2023/08/31 03:34:49;;;;;;;6.32;1.77;;;19.40;96.70;;;;;;5056660;28;20071;-79
2023/08/31 03:37:19;;;;;;;6.75;1.50;;;19.30;96.70;;;;;;5029890;28;20047;-80
2023/08/31 03:39:49;;;;;;;7.00;1.60;;;19.30;96.70;;;;;;5064489;28;20435;-78
2023/08/31 03:42:17;;;;;;;6.18;1.48;;;19.20;96.70;;;;;;5047969;28;21203;-79
2023/08/31 03:44:45;;;;;;;5.85;1.60;;;19.20;96.70;;;;;;5065678;28;20557;-79
2023/08/31 03:47:16;;;;;;;10.25;2.38;;;19.20;96.70;;;;;;5036707;28;20109;-79
2023/08/31 03:49:45;;;;;;;4.55;1.58;;;19.20;96.70;;;;;;5036654;28;20048;-78
2023/08/31 03:52:15;;;;;;;6.72;1.30;;;19.10;96.70;;;;;;5035155;28;20090;-79
2023/08/31 03:54:43;;;;;;;6.63;1.50;;;19.10;96.70;;;;;;5054828;28;20127;-79
2023/08/31 03:57:12;;;;;;;4.30;1.52;;;19.10;96.70;;;;;;5030822;28;20040;-79
2023/08/31 03:59:41;;;;;;;5.75;1.20;;;19.10;96.70;;;;;;5031009;28;20048;-79
2023/08/31 04:02:09;;;;;;;7.80;1.73;;;19.20;96.70;;;;;;5030455;28;20518;-80
2023/08/31 04:04:37;;;;;;;5.15;1.40;;;19.20;96.70;;;;;;5029576;28;20057;-73
2023/08/31 04:07:06;;;;;;;6.68;1.85;;;19.20;96.70;;;;;;5032900;28;20392;-74
2023/08/31 04:09:35;;;;;;;2.20;1.10;;;19.10;96.70;;;;;;5061505;28;20403;-73
2023/08/31 04:12:03;;;;;;;4.05;1.27;;;19.10;96.70;;;;;;5046601;28;20069;-74
2023/08/31 04:14:33;;;;;;;6.20;1.60;;;19.10;96.70;;;;;;5048204;28;20049;-74
2023/08/31 04:17:01;;;;;;;5.22;1.50;;;19.20;96.70;;;;;;5053070;28;20052;-72
2023/08/31 04:19:29;;;;;;;2.75;1.40;;;19.20;96.70;;;;;;5045444;28;20144;-73
2023/08/31 04:21:57;;;;;;;6.28;1.65;;;19.30;96.70;;;;;;5056607;28;20040;-73
2023/08/31 04:24:26;;;;;;;5.72;1.30;;;19.20;96.70;;;;;;5038475;28;20044;-74
2023/08/31 04:26:55;;;;;;;5.60;1.45;;;19.20;96.70;;;;;;5043793;28;20056;-72
2023/08/31 04:29:24;;;;;;;5.05;1.27;;;19.30;96.70;;;;;;5046918;28;20083;-74
2023/08/31 04:31:54;;;;;;;6.90;1.98;;;19.30;96.70;;;;;;5045358;28;20426;-74
2023/08/31 04:34:22;;;;;;;6.10;1.55;;;19.20;96.70;;;;;;5048484;28;20051;-73
2023/08/31 04:36:50;;;;;;;7.38;1.35;;;19.30;96.70;;;;;;5043291;28;20056;-73
2023/08/31 04:39:18;;;;;;;5.38;1.30;;;19.20;96.70;;;;;;5042909;28;20040;-72
2023/08/31 04:41:46;;;;;;;5.80;1.30;;;19.30;96.70;;;;;;5064716;28;20082;-72
2023/08/31 04:44:14;;;;;;;5.60;1.35;;;19.30;96.70;;;;;;5064528;28;20045;-73
2023/08/31 04:46:42;;;;;;;6.05;1.63;;;19.20;96.70;;;;;;5046099;28;20474;-73
2023/08/31 04:49:11;;;;;;;7.70;1.83;;;19.20;96.70;;;;;;5069564;28;20094;-73
2023/08/31 04:51:41;;;;;;;4.60;1.08;;;19.20;96.70;;;;;;5046036;28;20975;-74
2023/08/31 04:54:10;;;;;;;2.63;1.30;;;19.30;96.70;;;;;;5055604;28;20106;-73
2023/08/31 04:56:41;;;;;;;4.75;1.70;;;19.30;96.70;;;;;;5047345;28;20076;-74
2023/08/31 04:59:09;;;;;;;4.30;1.60;;;19.30;96.70;;;;;;5031270;28;20126;-74
2023/08/31 05:01:37;;;;;;;5.38;1.38;;;19.30;96.70;;;;;;5056184;28;20517;-73
2023/08/31 05:04:05;;;;;;;5.05;1.60;;;19.30;96.70;;;;;;5048894;28;20401;-73
2023/08/31 05:06:35;;;;;;;3.83;1.85;;;19.30;96.70;;;;;;5072266;28;20052;-73
2023/08/31 05:09:03;;;;;;;7.13;1.63;;;19.30;96.70;;;;;;5062679;28;20041;-74
2023/08/31 05:11:32;;;;;;;7.40;1.73;;;19.30;96.70;;;;;;5045922;28;20494;-73
2023/08/31 05:14:00;;;;;;;5.97;1.80;;;19.30;96.70;;;;;;5045928;28;20124;-73
2023/08/31 05:16:28;;;;;;;10.25;1.67;;;19.30;96.70;;;;;;5051319;28;20113;-73
2023/08/31 05:18:56;;;;;;;6.18;1.83;;;19.40;96.70;;;;;;5047314;28;20036;-74
2023/08/31 05:21:24;;;;;;;5.82;1.77;;;19.40;96.70;;;;;;5044071;28;20048;-73
2023/08/31 05:23:54;;;;;;;6.25;1.70;;;19.40;96.70;;;;;;5058121;28;20050;-75
2023/08/31 05:26:22;;;;;;;8.70;1.70;;;19.40;96.70;;;;;;5063370;28;20083;-74
2023/08/31 05:28:50;;;;;;;5.45;1.40;;;19.40;96.70;;;;;;5026840;28;20086;-75
2023/08/31 05:31:18;;;;;;;5.20;1.52;;;19.40;96.70;;;;;;5043080;28;20067;-75
2023/08/31 05:33:46;;;;;;;6.63;1.75;;;19.40;96.70;;;;;;5046654;28;20474;-75
2023/08/31 05:36:14;;;;;;;6.63;1.77;;;19.30;96.70;;;;;;5049590;28;20040;-76
2023/08/31 05:38:42;;;;;;;7.93;1.80;;;19.30;96.70;;;;;;5045655;28;20071;-75
2023/08/31 05:41:12;;;;;;;8.88;1.83;;;19.30;96.70;;;;;;5050343;28;20040;-77
2023/08/31 05:43:40;;;;;;;4.53;1.52;;;19.40;96.70;;;;;;5062926;28;20097;-75
2023/08/31 05:46:08;;;;;;;6.65;2.08;;;19.40;96.70;;;;;;5024470;28;20132;-76
2023/08/31 05:48:37;;;;;;;9.95;2.88;;;19.40;96.70;;;;;;5058342;28;20029;-76
2023/08/31 05:51:06;;;;;;;9.65;3.72;;;19.50;96.70;;;;;;5038571;28;20049;-75
2023/08/31 05:53:34;;;;;;;9.30;4.18;;;19.60;96.70;;;;;;5051016;28;20040;-76
2023/08/31 05:56:06;;;;;;;7.22;4.30;;;19.60;96.70;;;;;;5044429;28;20453;-75
2023/08/31 05:58:37;;;;;;;8.90;3.97;;;19.60;96.70;;;;;;5065059;28;20048;-75
2023/08/31 06:01:05;;;;;;;8.05;3.60;;;19.60;96.70;;;;;;5047718;28;20574;-75
2023/08/31 06:03:36;;;;;;;5.80;3.20;;;19.60;96.70;;;;;;5042295;28;20518;-75
2023/08/31 06:06:05;;;;;;;6.25;3.38;;;19.60;96.70;;;;;;5045106;28;20052;-75
2023/08/31 06:08:33;;;;;;;6.20;3.33;;;19.60;96.70;;;;;;5044319;28;20135;-75
2023/08/31 06:11:01;;;;;;;7.20;3.17;;;19.60;96.70;;;;;;5032074;28;20058;-80
2023/08/31 06:13:29;;;;;;;6.55;2.35;;;19.50;96.70;;;;;;5046110;28;20568;-80
2023/08/31 06:15:59;;;;;;;7.22;2.10;;;19.70;96.70;;;;;;5055627;28;20480;-80
2023/08/31 06:18:27;;;;;;;7.05;2.17;;;19.80;96.70;;;;;;5044939;28;20060;-77
2023/08/31 06:20:56;;;;;;;5.53;2.30;;;19.90;96.70;;;;;;5053356;28;20075;-73
2023/08/31 06:23:24;;;;;;;6.43;2.15;;;19.80;96.70;;;;;;5026474;28;20051;-73
2023/08/31 06:25:52;;;;;;;4.72;2.63;;;20.00;96.70;;;;;;5046659;28;20065;-73
2023/08/31 06:28:20;;;;;;;6.10;2.30;;;20.00;96.70;;;;;;5044744;28;20054;-72
2023/08/31 06:30:48;;;;;;;4.57;2.22;;;20.10;96.70;;;;;;5048574;28;20131;-73
2023/08/31 06:33:19;;;;;;;6.85;3.15;;;20.10;96.70;;;;;;5048886;28;20052;-73
2023/08/31 06:35:53;;;;;;;7.50;2.80;;;20.20;96.70;;;;;;5047952;28;20519;-73
2023/08/31 06:38:22;;;;;;;8.48;2.88;;;20.20;96.70;;;;;;5058317;28;20554;-73
2023/08/31 06:40:50;;;;;;;5.50;2.45;;;20.30;96.70;;;;;;5045399;28;20860;-72
2023/08/31 06:43:18;;;;;;;4.35;2.25;;;20.30;96.70;;;;;;5045851;28;20490;-72
2023/08/31 06:45:46;;;;;;;7.68;2.53;;;20.40;96.70;;;;;;5057304;28;20151;-72
2023/08/31 06:48:14;;;;;;;7.25;2.70;;;20.40;96.70;;;;;;5064289;28;20052;-73
2023/08/31 06:50:44;;;;;;;5.20;2.38;;;20.50;96.70;;;;;;5047832;28;20159;-73
2023/08/31 06:53:12;;;;;;;8.52;2.85;;;20.50;96.70;;;;;;5058369;28;20049;-71
2023/08/31 06:55:40;;;;;;;6.57;2.45;;;20.50;96.70;;;;;;5062871;28;20120;-73
2023/08/31 06:58:08;;;;;;;5.97;2.28;;;20.60;96.70;;;;;;5066466;28;20041;-73
2023/08/31 07:00:36;;;;;;;7.35;2.20;;;20.60;96.70;;;;;;5051131;28;20595;-73
2023/08/31 07:03:07;;;;;;;6.97;2.58;;;20.60;96.70;;;;;;5048628;28;20544;-73
2023/08/31 07:05:43;;;;;;;5.88;2.10;;;20.70;96.70;;;;;;5053429;28;20442;-73
2023/08/31 07:08:11;;;;;;;5.57;2.27;;;20.70;96.70;;;;;;5050533;28;20509;-73
2023/08/31 07:10:39;;;;;;;8.63;2.38;;;20.80;96.70;;;;;;5049296;28;20851;-73
2023/08/31 07:13:08;;;;;;;4.10;1.70;;;20.80;96.70;;;;;;5048102;28;20498;-73
2023/08/31 07:15:36;;;;;;;8.50;2.17;;;20.90;96.70;;;;;;5046985;28;20048;-73
2023/08/31 07:18:05;;;;;;;6.32;2.15;;;20.90;96.70;;;;;;5046292;28;20122;-72
2023/08/31 07:20:33;;;;;;;4.18;1.85;;;21.00;96.70;;;;;;5048277;28;20041;-73
2023/08/31 07:23:04;;;;;;;3.20;2.03;;;20.90;96.70;;;;;;5047676;28;20075;-73
2023/08/31 07:25:32;;;;;;;6.72;3.33;;;21.00;96.70;;;;;;5049877;28;20403;-72
2023/08/31 07:28:00;;;;;;;4.03;1.95;;;21.10;96.70;;;;;;5030781;28;20033;-73
2023/08/31 07:30:29;;;;;;;8.05;2.60;;;21.20;96.70;;;;;;5055420;28;20072;-72
2023/08/31 07:32:59;;;;;;;6.53;2.17;;;21.20;96.70;;;;;;5047522;28;20073;-72
2023/08/31 07:35:27;;;;;;;11.15;2.42;;;21.20;96.70;;;;;;5047678;28;20588;-73
2023/08/31 07:37:56;;;;;;;4.05;1.70;;;21.30;96.70;;;;;;5053658;28;20044;-73
2023/08/31 07:40:25;;;;;;;8.50;2.15;;;21.40;96.70;;;;;;5063822;28;20048;-72
2023/08/31 07:42:53;;;;;;;7.50;2.58;;;21.50;96.70;;;;;;5047743;28;20070;-73
2023/08/31 07:45:21;;;;;;;6.22;2.97;;;21.40;96.70;;;;;;5066085;28;20518;-73
2023/08/31 07:47:49;;;;;;;5.65;2.40;;;21.40;96.70;;;;;;5047744;28;20064;-72
2023/08/31 07:50:17;;;;;;;6.95;2.63;;;21.60;96.70;;;;;;5056600;28;20564;-73
2023/08/31 07:52:46;;;;;;;6.82;2.72;;;21.60;96.70;;;;;;5047454;28;20064;-73
2023/08/31 07:55:14;;;;;;;8.50;3.03;;;21.80;96.70;;;;;;5046796;28;20502;-73
2023/08/31 07:57:43;;;;;;;10.60;2.55;;;21.80;96.70;;;;;;5037748;28;20045;-73
2023/08/31 08:00:14;;;;;;;9.02;2.70;;;21.90;96.70;;;;;;5046802;28;20041;-73
2023/08/31 08:02:42;;;;;;;9.32;2.30;;;22.00;96.70;;;;;;5047149;28;20044;-73
2023/08/31 08:05:10;;;;;;;9.18;3.20;;;22.10;96.70;;;;;;5046539;28;20118;-73
2023/08/31 08:07:38;;;;;;;6.97;2.60;;;22.20;96.70;;;;;;5049464;28;20123;-73
2023/08/31 08:10:07;;;;;;;7.70;2.45;;;22.30;96.70;;;;;;5056539;28;20525;-73
2023/08/31 08:12:39;;;;;;;12.45;2.63;;;22.40;96.70;;;;;;5065580;28;20049;-72
2023/08/31 08:15:10;;;;;;;9.82;2.35;;;22.60;96.70;;;;;;5047287;28;20036;-72
2023/08/31 08:17:38;;;;;;;9.30;2.50;;;22.70;96.70;;;;;;5047977;28;20051;-72
2023/08/31 08:20:08;;;;;;;8.43;2.25;;;22.70;96.70;;;;;;5040809;28;20710;-72
2023/08/31 08:22:36;;;;;;;8.73;2.35;;;22.80;96.70;;;;;;5046704;28;20044;-73
2023/08/31 08:25:05;;;;;;;9.32;2.33;;;22.80;96.70;;;;;;5046898;28;20623;-73
2023/08/31 08:27:34;;;;;;;12.07;2.35;;;22.80;96.70;;;;;;5064821;28;20040;-73
2023/08/31 08:30:04;;;;;;;9.20;2.63;;;22.80;96.70;;;;;;5046554;28;20574;-72
2023/08/31 08:32:35;;;;;;;6.93;2.17;;;22.80;96.70;;;;;;5071346;28;20179;-73
2023/08/31 08:35:04;;;;;;;8.15;1.85;;;23.00;96.70;;;;;;5046287;28;20056;-73
2023/08/31 08:37:33;;;;;;;8.13;2.33;;;23.10;96.70;;;;;;5051535;28;20163;-72
2023/08/31 08:40:02;;;;;;;7.20;2.35;;;23.10;96.70;;;;;;5046888;28;20082;-72
2023/08/31 08:42:35;;;;;;;9.35;2.33;;;23.20;96.70;;;;;;5046480;28;20125;-73
2023/08/31 08:45:05;;;;;;;9.60;2.17;;;23.30;96.70;;;;;;5026673;28;20083;-73
2023/08/31 08:47:36;;;;;;;5.97;2.00;;;23.30;96.70;;;;;;5036854;28;20053;-72
2023/08/31 08:50:05;;;;;;;13.32;2.20;;;23.40;96.70;;;;;;5064517;28;20044;-73
2023/08/31 08:52:33;;;;;;;8.05;2.17;;;23.60;96.70;;;;;;5042694;28;20139;-73
2023/08/31 08:55:02;;;;;;;7.78;1.88;;;23.60;96.70;;;;;;5043505;28;20048;-73
2023/08/31 08:57:31;;;;;;;7.63;2.50;;;23.60;96.70;;;;;;5026199;28;20136;-73
2023/08/31 08:59:59;;;;;;;9.85;2.00;;;23.50;96.70;;;;;;5046308;28;20116;-74
2023/08/31 09:02:27;;;;;;;8.30;2.15;;;23.50;96.70;;;;;;5046718;28;20093;-72
2023/08/31 09:04:57;;;;;;;7.22;2.10;;;23.60;96.70;;;;;;5026523;28;20079;-73
2023/08/31 09:07:29;;;;;;;9.52;2.22;;;23.70;96.70;;;;;;5055301;28;20629;-72
2023/08/31 09:09:59;;;;;;;7.90;1.92;;;23.70;96.70;;;;;;5055160;28;20136;-72
2023/08/31 09:12:26;;;;;;;5.10;2.10;;;23.70;96.70;;;;;;5053632;28;20063;-72
2023/08/31 09:14:59;;;;;;;8.38;2.30;;;23.80;96.70;;;;;;5050035;28;20044;-73
2023/08/31 09:17:38;;;;;;;11.32;3.42;;;23.90;96.70;;;;;;5046184;28;20053;-72
2023/08/31 09:20:09;;;;;;;7.53;2.28;;;24.00;96.70;;;;;;5057435;28;20041;-72
2023/08/31 09:22:46;;;;;;;5.45;2.08;;;24.10;96.70;;;;;;5055593;28;20071;-73
2023/08/31 09:25:15;;;;;;;7.13;2.40;;;24.20;96.70;;;;;;5046268;28;20119;-73
2023/08/31 09:27:44;;;;;;;8.18;2.30;;;24.40;96.70;;;;;;5045279;28;20132;-73
2023/08/31 09:30:13;;;;;;;9.35;2.90;;;24.50;96.70;;;;;;5047874;28;20247;-73
2023/08/31 09:32:43;;;;;;;10.38;2.30;;;24.50;96.70;;;;;;5063799;28;20040;-73
2023/08/31 09:35:13;;;;;;;10.25;2.13;;;24.60;96.70;;;;;;5038720;28;20052;-72
2023/08/31 09:37:57;;;;;;;8.73;2.58;;;24.70;96.70;;;;;;5063837;28;20033;-73
2023/08/31 09:40:25;;;;;;;8.85;2.38;;;24.70;96.70;;;;;;5047327;28;20041;-72
2023/08/31 09:42:53;;;;;;;7.57;2.33;;;24.70;96.70;;;;;;5045523;28;20049;-72
2023/08/31 09:45:33;;;;;;;8.65;2.67;;;24.70;96.70;;;;;;5063567;28;20037;-72
2023/08/31 09:48:05;;;;;;;7.47;2.30;;;24.60;96.70;;;;;;5045348;28;20044;-72
2023/08/31 09:50:37;;;;;;;7.20;2.78;;;24.70;96.70;;;;;;5063262;28;20048;-73
2023/08/31 09:53:08;;;;;;;6.72;2.00;;;24.80;96.70;;;;;;5044549;28;20044;-72
2023/08/31 09:55:39;;;;;;;9.32;3.10;;;24.80;96.70;;;;;;5055252;28;20068;-73
2023/08/31 09:58:09;;;;;;;5.47;2.08;;;25.00;96.70;;;;;;5045246;28;20049;-72
2023/08/31 10:00:43;;;;;;;7.10;2.08;;;25.20;96.70;;;;;;5047574;28;20052;-73
2023/08/31 10:03:15;;;;;;;7.50;2.45;;;25.30;96.70;;;;;;5045070;28;20388;-72
2023/08/31 10:05:49;;;;;;;7.95;2.40;;;25.30;96.70;;;;;;5044377;28;20080;-73
2023/08/31 10:08:18;;;;;;;6.82;2.63;;;25.30;96.70;;;;;;5052140;28;20041;-72
2023/08/31 10:10:47;;;;;;;7.90;2.22;;;25.20;96.70;;;;;;5049603;28;20517;-72
2023/08/31 10:13:16;;;;;;;8.35;2.00;;;25.20;96.70;;;;;;5043193;28;20102;-72
2023/08/31 10:15:45;;;;;;;5.82;1.98;;;25.20;96.70;;;;;;5045561;28;20151;-73
2023/08/31 10:18:13;;;;;;;5.20;2.05;;;25.30;96.70;;;;;;5077488;28;20048;-72
2023/08/31 10:20:44;;;;;;;10.73;2.30;;;25.30;96.70;;;;;;5042311;28;20099;-72
2023/08/31 10:23:13;;;;;;;5.63;2.05;;;25.30;96.70;;;;;;5057780;28;20110;-72
2023/08/31 10:26:04;;;;;;;4.43;2.03;;;25.40;96.70;;;;;;5047673;28;20500;-73
2023/08/31 10:28:40;;;;;;;6.38;2.00;;;25.60;96.70;;;;;;5040466;28;20059;-73
2023/08/31 10:31:09;;;;;;;6.80;2.47;;;25.70;96.70;;;;;;5039283;28;20063;-73
2023/08/31 10:33:44;;;;;;;6.30;1.90;;;25.70;96.70;;;;;;5057268;28;20048;-73
2023/08/31 10:36:14;;;;;;;4.28;1.80;;;25.80;96.70;;;;;;5063041;28;20044;-73
2023/08/31 10:38:46;;;;;;;7.05;1.63;;;25.60;96.70;;;;;;5035055;28;20059;-72
2023/08/31 10:41:21;;;;;;;5.85;1.67;;;25.70;96.70;;;;;;5044608;28;20107;-74
2023/08/31 10:43:51;;;;;;;4.63;1.58;;;25.80;96.70;;;;;;5044741;28;20045;-73
2023/08/31 10:46:31;;;;;;;4.90;1.80;;;25.80;96.70;;;;;;5029152;28;20649;-71
2023/08/31 10:49:02;;;;;;;4.05;1.60;;;26.10;96.70;;;;;;5047455;28;20230;-72
2023/08/31 10:51:31;;;;;;;6.65;2.15;;;26.30;96.70;;;;;;5062603;28;20128;-72
2023/08/31 10:54:09;;;;;;;6.15;1.80;;;26.50;96.70;;;;;;5027561;28;20044;-72
2023/08/31 10:56:55;;;;;;;6.93;1.92;;;26.60;96.70;;;;;;5041429;28;20064;-71
2023/08/31 10:59:25;;;;;;;4.60;1.50;;;26.60;96.70;;;;;;5039223;28;20052;-72
2023/08/31 11:01:56;;;;;;;4.00;1.58;;;26.50;96.70;;;;;;5063338;28;20102;-72
2023/08/31 11:04:27;;;;;;;4.70;1.88;;;26.50;96.70;;;;;;5054484;28;20077;-73
2023/08/31 11:07:17;;;;;;;6.00;1.92;;;26.70;96.70;;;;;;5041392;28;20063;-73
2023/08/31 11:09:47;;;;;;;5.47;1.67;;;27.00;96.70;;;;;;5040600;28;20041;-74
2023/08/31 11:12:15;;;;;;;5.28;1.83;;;27.20;96.70;;;;;;5049541;28;20102;-73
2023/08/31 11:14:43;;;;;;;7.50;1.95;;;27.30;96.70;;;;;;5034694;28;20544;-73
2023/08/31 11:17:12;;;;;;;4.25;1.40;;;27.50;96.70;;;;;;5056437;28;20045;-73
2023/08/31 11:19:41;;;;;;;4.57;1.73;;;27.80;96.70;;;;;;5031686;28;20697;-73
2023/08/31 11:22:11;;;;;;;4.95;1.90;;;27.90;96.70;;;;;;5044215;28;20423;-73
2023/08/31 11:24:40;;;;;;;5.97;1.50;;;27.80;96.70;;;;;;5061930;28;20531;-73
2023/08/31 11:27:10;;;;;;;4.57;1.90;;;27.50;96.70;;;;;;5049020;28;20622;-73
2023/08/31 11:29:42;;;;;;;6.60;2.28;;;27.20;96.70;;;;;;5045747;28;20571;-73
2023/08/31 11:32:11;;;;;;;6.47;1.90;;;27.00;96.70;;;;;;5066455;28;20452;-73
2023/08/31 11:34:42;;;;;;;4.85;1.63;;;26.80;96.70;;;;;;5047559;28;20685;-73
2023/08/31 11:37:17;;;;;;;6.00;1.35;;;26.80;96.70;;;;;;5065381;28;20044;-73
2023/08/31 11:39:49;;;;;;;2.97;1.40;;;26.90;96.70;;;;;;5065298;28;20102;-73
2023/08/31 11:42:21;;;;;;;2.58;1.17;;;27.20;96.70;;;;;;5065687;28;20059;-73
2023/08/31 11:44:52;;;;;;;8.45;1.70;;;27.20;96.70;;;;;;5060957;28;20045;-73
2023/08/31 11:47:21;;;;;;;6.97;1.75;;;27.30;96.70;;;;;;5048377;28;20074;-73
2023/08/31 11:49:50;;;;;;;4.55;1.60;;;27.20;96.70;;;;;;5047709;28;20094;-73
2023/08/31 11:52:19;;;;;;;4.43;1.38;;;27.50;96.70;;;;;;5046870;28;20453;-73
2023/08/31 11:54:53;;;;;;;6.65;1.63;;;27.80;96.70;;;;;;5044825;28;20541;-72
2023/08/31 11:57:30;;;;;;;6.43;2.47;;;27.90;96.70;;;;;;5047668;28;20870;-73
2023/08/31 11:59:59;;;;;;;5.28;1.55;;;28.00;96.70;;;;;;5047691;28;20040;-73
2023/08/31 12:02:27;;;;;;;4.72;1.40;;;28.00;96.70;;;;;;5027965;28;20076;-73
2023/08/31 12:04:57;;;;;;;3.35;1.30;;;27.90;96.70;;;;;;5047192;28;20072;-73
2023/08/31 12:07:25;;;;;;;4.47;1.67;;;28.10;96.70;;;;;;5044879;28;20122;-73
2023/08/31 12:09:54;;;;;;;3.05;1.50;;;27.80;96.70;;;;;;5047630;28;20515;-74
2023/08/31 12:12:23;;;;;;;4.13;1.73;;;27.50;96.70;;;;;;5043724;28;20044;-74
2023/08/31 12:14:54;;;;;;;4.45;1.88;;;27.30;96.70;;;;;;5056921;28;20037;-75
2023/08/31 12:17:23;;;;;;;4.07;1.42;;;27.30;96.70;;;;;;5061963;28;20398;-75
2023/08/31 12:19:52;;;;;;;5.82;1.52;;;27.30;96.70;;;;;;5046415;28;20046;-74
2023/08/31 12:22:20;;;;;;;6.28;1.40;;;27.50;96.70;;;;;;5025263;28;20045;-73
2023/08/31 12:24:48;;;;;;;4.60;1.40;;;27.50;96.70;;;;;;5060652;28;20090;-73
2023/08/31 12:27:17;;;;;;;4.53;1.65;;;27.50;96.70;;;;;;5045881;28;20045;-74
2023/08/31 12:29:46;;;;;;;3.35;1.30;;;27.60;96.70;;;;;;5044267;28;20124;-73
2023/08/31 12:32:19;;;;;;;5.78;1.65;;;28.00;96.70;;;;;;5048336;28;20673;-75
2023/08/31 12:34:47;;;;;;;5.90;2.10;;;28.20;96.70;;;;;;5046450;28;20060;-75
2023/08/31 12:37:16;;;;;;;4.68;1.77;;;28.40;96.70;;;;;;5065516;28;20052;-74
2023/08/31 12:39:45;;;;;;;5.85;2.00;;;28.50;96.70;;;;;;5061599;28;20689;-75
2023/08/31 12:42:13;;;;;;;4.15;1.17;;;28.20;96.70;;;;;;5063342;28;20048;-75
2023/08/31 12:44:50;;;;;;;4.35;1.50;;;28.10;96.70;;;;;;5054342;28;20398;-75
2023/08/31 12:47:20;;;;;;;6.60;1.42;;;28.20;96.70;;;;;;5046429;28;20163;-75
2023/08/31 12:49:48;;;;;;;2.95;1.33;;;28.30;96.70;;;;;;5057471;28;20118;-76
2023/08/31 12:52:17;;;;;;;4.47;1.50;;;28.50;96.70;;;;;;5044954;28;20135;-74
2023/08/31 12:54:46;;;;;;;4.75;1.45;;;28.70;96.70;;;;;;5044386;28;20143;-76
2023/08/31 12:57:15;;;;;;;7.35;1.92;;;28.80;96.70;;;;;;5027061;28;20483;-76
2023/08/31 12:59:43;;;;;;;3.70;1.70;;;28.80;96.70;;;;;;5045093;28;20561;-74